createdAt,value
2018-05-11T00:00:35.239Z,64.20
2018-05-11T00:03:04.260Z,60.20
2018-05-11T00:05:33.082Z,65.00
2018-05-11T00:08:02.819Z,64.60
2018-05-11T00:10:31.829Z,60.60
2018-05-11T00:13:00.635Z,64.60
2018-05-11T00:15:29.779Z,65.60
2018-05-11T00:17:58.820Z,59.40
2018-05-11T00:20:27.803Z,64.00
2018-05-11T00:22:56.425Z,65.80
2018-05-11T00:25:25.808Z,64.80
2018-05-11T00:27:54.733Z,65.20
2018-05-11T00:30:23.837Z,67.20
2018-05-11T00:35:47.233Z,67.80
2018-05-11T00:38:16.455Z,65.00
2018-05-11T00:40:50.918Z,67.80
2018-05-11T00:43:19.597Z,71.80
2018-05-11T00:45:49.220Z,63.20
2018-05-11T00:48:18.226Z,63.60
2018-05-11T00:50:47.830Z,70.80
2018-05-11T00:53:17.129Z,61.40
2018-05-11T00:55:52.145Z,65.40
2018-05-11T00:58:21.635Z,66.60
2018-05-11T01:00:50.526Z,62.40
2018-05-11T01:03:19.133Z,57.00
2018-05-11T01:05:47.861Z,58.80
2018-05-11T01:08:17.139Z,57.00
2018-05-11T01:10:46.218Z,65.60
2018-05-11T01:13:14.902Z,69.60
2018-05-11T01:15:44.050Z,68.20
2018-05-11T01:18:13.028Z,83.00
2018-05-11T01:20:42.838Z,73.80
2018-05-11T01:23:11.991Z,74.60
2018-05-11T01:25:41.526Z,76.60
2018-05-11T01:28:10.167Z,72.00
2018-05-11T01:33:33.819Z,69.00
2018-05-11T01:36:03.469Z,69.00
2018-05-11T01:38:32.339Z,69.00
2018-05-11T01:41:01.633Z,69.80
2018-05-11T01:43:30.501Z,63.20
2018-05-11T01:45:59.295Z,65.80
2018-05-11T01:48:28.199Z,71.60
2018-05-11T01:50:58.554Z,71.00
2018-05-11T01:53:27.684Z,64.20
2018-05-11T01:55:56.645Z,70.80
2018-05-11T01:58:25.808Z,66.40
2018-05-11T02:00:54.974Z,67.20
2018-05-11T02:03:24.082Z,60.20
2018-05-11T02:05:53.118Z,69.00
2018-05-11T02:08:22.717Z,69.80
2018-05-11T02:10:51.472Z,67.20
2018-05-11T02:13:20.666Z,68.40
2018-05-11T02:15:50.136Z,66.20
2018-05-11T02:18:18.903Z,72.60
2018-05-11T02:20:47.777Z,69.00
2018-05-11T02:23:16.908Z,67.00
2018-05-11T02:25:47.082Z,66.20
2018-05-11T02:28:16.234Z,67.40
2018-05-11T02:30:44.934Z,74.00
2018-05-11T02:33:13.664Z,74.60
2018-05-11T02:35:42.884Z,70.60
2018-05-11T02:38:11.374Z,66.20
2018-05-11T02:40:40.403Z,74.00
2018-05-11T02:43:09.356Z,72.20
2018-05-11T02:45:37.878Z,81.80
2018-05-11T02:48:06.652Z,76.40
2018-05-11T02:50:36.205Z,69.20
2018-05-11T02:53:06.570Z,69.80
2018-05-11T02:55:35.930Z,79.40
2018-05-11T02:58:04.700Z,72.40
2018-05-11T03:00:34.217Z,66.40
2018-05-11T03:03:03.087Z,72.80
2018-05-11T03:05:32.015Z,73.40
2018-05-11T03:08:01.153Z,75.60
2018-05-11T03:10:30.437Z,67.60
2018-05-11T03:12:59.446Z,69.00
2018-05-11T03:15:28.316Z,64.80
2018-05-11T03:17:57.349Z,63.00
2018-05-11T03:20:26.346Z,67.40
2018-05-11T03:22:55.052Z,69.00
2018-05-11T03:25:23.881Z,64.40
2018-05-11T03:27:52.679Z,67.00
2018-05-11T03:30:21.545Z,65.60
2018-05-11T03:32:51.371Z,63.80
2018-05-11T03:35:21.025Z,66.40
2018-05-11T03:37:50.330Z,63.00
2018-05-11T03:40:19.159Z,65.40
2018-05-11T03:42:48.049Z,61.20
2018-05-11T03:45:16.784Z,64.20
2018-05-11T03:47:45.955Z,59.60
2018-05-11T03:50:15.022Z,61.40
2018-05-11T03:52:44.561Z,61.40
2018-05-11T03:55:15.199Z,57.60
2018-05-11T03:57:44.526Z,57.40
2018-05-11T04:00:13.640Z,60.00
2018-05-11T04:02:53.978Z,54.60
2018-05-11T04:05:34.603Z,57.80
2018-05-11T04:08:15.167Z,59.00
2018-05-11T04:10:44.554Z,62.80
2018-05-11T04:13:13.859Z,60.80
2018-05-11T04:15:43.036Z,58.60
2018-05-11T04:18:12.103Z,60.80
2018-05-11T04:20:41.779Z,55.20
2018-05-11T04:23:11.537Z,57.60
2018-05-11T04:25:41.486Z,53.40
2018-05-11T04:28:10.663Z,50.20
2018-05-11T04:30:39.294Z,53.00
2018-05-11T04:33:08.431Z,53.00
2018-05-11T04:35:37.736Z,53.00
2018-05-11T04:38:07.265Z,51.40
2018-05-11T04:40:36.084Z,52.60
2018-05-11T04:43:04.877Z,52.00
2018-05-11T04:45:34.108Z,53.20
2018-05-11T04:48:02.526Z,51.20
2018-05-11T04:50:31.161Z,51.00
2018-05-11T04:53:00.249Z,50.80
2018-05-11T04:55:30.960Z,51.40
2018-05-11T04:58:00.714Z,52.60
2018-05-11T05:00:30.251Z,51.20
2018-05-11T05:02:59.250Z,51.80
2018-05-11T05:05:28.594Z,51.40
2018-05-11T05:07:57.774Z,50.80
2018-05-11T05:10:26.721Z,49.20
2018-05-11T05:12:55.967Z,51.80
2018-05-11T05:15:25.024Z,48.60
2018-05-11T05:17:54.709Z,48.60
2018-05-11T05:20:24.173Z,50.40
2018-05-11T05:22:53.327Z,49.60
2018-05-11T05:25:22.595Z,49.60
2018-05-11T05:27:51.502Z,48.80
2018-05-11T05:30:20.709Z,51.00
2018-05-11T05:32:49.535Z,51.20
2018-05-11T05:35:18.927Z,55.80
2018-05-11T05:37:47.800Z,51.40
2018-05-11T05:40:16.658Z,51.40
2018-05-11T05:42:46.809Z,52.80
2018-05-11T05:45:15.902Z,53.00
2018-05-11T05:47:45.196Z,47.80
2018-05-11T05:50:14.268Z,54.00
2018-05-11T05:52:43.217Z,51.80
2018-05-11T05:55:12.347Z,51.00
2018-05-11T05:57:42.657Z,54.20
2018-05-11T06:00:11.848Z,55.20
2018-05-11T06:02:41.538Z,52.40
2018-05-11T06:05:10.584Z,52.00
2018-05-11T06:07:39.261Z,52.00
2018-05-11T06:10:08.261Z,50.60
2018-05-11T06:12:37.827Z,49.40
2018-05-11T06:15:06.929Z,49.60
2018-05-11T06:17:35.727Z,48.80
2018-05-11T06:20:06.498Z,51.40
2018-05-11T06:22:35.347Z,51.80
2018-05-11T06:25:04.663Z,50.40
2018-05-11T06:27:33.655Z,52.00
2018-05-11T06:30:02.661Z,52.00
2018-05-11T06:32:31.816Z,50.40
2018-05-11T06:35:01.182Z,49.60
2018-05-11T06:37:30.622Z,51.00
2018-05-11T06:39:59.880Z,49.80
2018-05-11T06:42:28.911Z,51.00
2018-05-11T06:44:57.633Z,51.00
2018-05-11T06:47:27.341Z,50.80
2018-05-11T06:49:56.191Z,50.00
2018-05-11T06:52:25.995Z,48.20
2018-05-11T06:54:54.920Z,49.80
2018-05-11T06:57:23.910Z,48.00
2018-05-11T06:59:54.970Z,49.40
2018-05-11T07:02:25.003Z,47.60
2018-05-11T07:04:54.519Z,45.80
2018-05-11T07:07:23.820Z,47.40
2018-05-11T07:09:53.739Z,47.40
2018-05-11T07:12:22.756Z,47.20
2018-05-11T07:14:51.981Z,47.80
2018-05-11T07:17:21.880Z,45.40
2018-05-11T07:19:50.665Z,46.40
2018-05-11T07:22:19.332Z,44.20
2018-05-11T07:24:48.402Z,45.40
2018-05-11T07:27:17.277Z,45.00
2018-05-11T07:29:46.290Z,41.60
2018-05-11T07:32:15.269Z,44.00
2018-05-11T07:34:44.411Z,45.20
2018-05-11T07:37:12.992Z,43.00
2018-05-11T07:39:42.516Z,42.00
2018-05-11T07:42:11.529Z,43.80
2018-05-11T07:44:40.606Z,44.60
2018-05-11T07:47:09.291Z,43.80
2018-05-11T07:49:37.969Z,44.80
2018-05-11T07:52:07.921Z,44.40
2018-05-11T07:54:36.899Z,44.80
2018-05-11T07:57:05.976Z,44.00
2018-05-11T07:59:34.760Z,44.20
2018-05-11T08:02:04.672Z,43.20
2018-05-11T08:04:33.199Z,45.00
2018-05-11T08:07:02.642Z,44.80
2018-05-11T08:09:31.867Z,43.20
2018-05-11T08:12:00.763Z,44.40
2018-05-11T08:14:30.040Z,42.00
2018-05-11T08:16:59.698Z,42.40
2018-05-11T08:19:29.178Z,43.00
2018-05-11T08:21:58.424Z,42.00
2018-05-11T08:24:27.199Z,42.00
2018-05-11T08:26:56.816Z,42.20
2018-05-11T08:29:25.442Z,41.20
2018-05-11T08:31:54.635Z,40.20
2018-05-11T08:34:23.753Z,40.40
2018-05-11T08:36:53.390Z,38.00
2018-05-11T08:39:22.358Z,41.20
2018-05-11T08:41:52.033Z,39.60
2018-05-11T08:44:20.766Z,40.00
2018-05-11T08:46:49.863Z,37.60
2018-05-11T08:49:19.402Z,35.00
2018-05-11T08:51:48.381Z,37.00
2018-05-11T08:54:17.070Z,34.80
2018-05-11T08:56:46.930Z,36.40
2018-05-11T08:59:16.083Z,36.80
2018-05-11T09:01:45.113Z,34.40
2018-05-11T09:04:15.253Z,35.80
2018-05-11T09:06:44.646Z,33.00
2018-05-11T09:09:14.314Z,31.60
2018-05-11T09:11:44.251Z,32.40
2018-05-11T09:14:13.603Z,38.00
2018-05-11T09:16:43.259Z,31.80
2018-05-11T09:19:13.409Z,32.40
2018-05-11T09:21:42.321Z,32.20
2018-05-11T09:24:11.497Z,30.20
2018-05-11T09:26:41.181Z,33.00
2018-05-11T09:29:11.077Z,31.00
2018-05-11T09:31:40.156Z,31.00
2018-05-11T09:34:09.418Z,30.00
2018-05-11T09:36:39.218Z,29.40
2018-05-11T09:39:08.345Z,31.40
2018-05-11T09:41:37.833Z,31.20
2018-05-11T09:44:07.958Z,30.40
2018-05-11T09:46:37.031Z,29.80
2018-05-11T09:49:06.469Z,27.20
2018-05-11T09:51:35.743Z,24.80
2018-05-11T09:54:04.925Z,30.60
2018-05-11T09:56:33.606Z,30.00
2018-05-11T09:59:03.196Z,29.00
2018-05-11T10:01:32.446Z,29.40
2018-05-11T10:04:02.666Z,29.20
2018-05-11T10:06:32.839Z,30.00
2018-05-11T10:09:01.378Z,30.60
2018-05-11T10:11:30.498Z,29.40
2018-05-11T10:13:59.764Z,29.60
2018-05-11T10:16:28.824Z,29.20
2018-05-11T10:18:57.588Z,30.20
2018-05-11T10:21:26.652Z,30.20
2018-05-11T10:23:56.325Z,30.60
2018-05-11T10:26:25.702Z,31.00
2018-05-11T10:28:54.758Z,30.00
2018-05-11T10:31:24.252Z,31.20
2018-05-11T10:33:53.952Z,29.20
2018-05-11T10:36:23.193Z,29.80
2018-05-11T10:38:52.033Z,30.00
2018-05-11T10:41:21.621Z,26.20
2018-05-11T10:43:50.521Z,24.80
2018-05-11T10:46:19.685Z,27.80
2018-05-11T10:48:48.671Z,30.40
2018-05-11T10:51:17.333Z,32.00
2018-05-11T10:53:46.493Z,32.00
2018-05-11T10:56:15.548Z,29.80
2018-05-11T10:58:45.632Z,30.60
2018-05-11T11:01:14.558Z,31.80
2018-05-11T11:03:44.199Z,31.80
2018-05-11T11:06:13.271Z,32.80
2018-05-11T11:08:43.971Z,32.20
2018-05-11T11:11:14.983Z,32.60
2018-05-11T11:13:47.750Z,33.00
2018-05-11T11:16:17.290Z,33.80
2018-05-11T11:18:46.743Z,33.80
2018-05-11T11:21:16.322Z,34.60
2018-05-11T11:23:45.309Z,35.60
2018-05-11T11:26:14.591Z,33.00
2018-05-11T11:28:43.864Z,33.00
2018-05-11T11:31:13.044Z,35.00
2018-05-11T11:33:41.826Z,32.80
2018-05-11T11:36:11.578Z,35.20
2018-05-11T11:38:41.024Z,34.80
2018-05-11T11:41:10.038Z,33.80
2018-05-11T11:43:39.975Z,35.00
2018-05-11T11:46:08.823Z,33.40
2018-05-11T11:48:37.717Z,36.60
2018-05-11T11:51:06.801Z,34.80
2018-05-11T11:53:36.229Z,34.20
2018-05-11T11:56:05.770Z,35.80
2018-05-11T11:58:35.383Z,36.40
2018-05-11T12:01:04.380Z,35.80
2018-05-11T12:03:33.473Z,30.00
2018-05-11T12:06:02.839Z,33.20
2018-05-11T12:08:31.623Z,36.80
2018-05-11T12:11:02.553Z,35.40
2018-05-11T12:13:31.776Z,35.60
2018-05-11T12:16:01.209Z,35.40
2018-05-11T12:18:30.230Z,37.80
2018-05-11T12:20:59.695Z,39.00
2018-05-11T12:23:29.529Z,38.60
2018-05-11T12:25:58.770Z,36.00
2018-05-11T12:28:28.530Z,38.20
2018-05-11T12:30:57.777Z,35.40
2018-05-11T12:33:26.724Z,37.20
2018-05-11T12:35:55.775Z,37.40
2018-05-11T12:38:24.758Z,38.40
2018-05-11T12:40:53.801Z,37.00
2018-05-11T12:43:22.791Z,39.60
2018-05-11T12:45:51.631Z,33.80
2018-05-11T12:48:21.244Z,41.40
2018-05-11T12:50:50.253Z,40.60
2018-05-11T12:53:19.418Z,38.00
2018-05-11T12:55:48.869Z,42.00
2018-05-11T12:58:17.756Z,34.80
2018-05-11T13:00:46.940Z,35.80
2018-05-11T13:03:15.992Z,37.80
2018-05-11T13:05:45.123Z,40.00
2018-05-11T13:08:14.174Z,38.00
2018-05-11T13:10:43.399Z,37.40
2018-05-11T13:13:16.831Z,40.80
2018-05-11T13:15:46.149Z,42.00
2018-05-11T13:18:15.087Z,42.00
2018-05-11T13:20:44.844Z,42.40
2018-05-11T13:23:14.290Z,40.20
2018-05-11T13:25:43.882Z,40.60
2018-05-11T13:28:13.463Z,40.60
2018-05-11T13:30:42.664Z,41.00
2018-05-11T13:33:12.246Z,40.40
2018-05-11T13:35:41.605Z,40.00
2018-05-11T13:38:11.373Z,42.00
2018-05-11T13:40:40.463Z,39.80
2018-05-11T13:43:10.171Z,35.60
2018-05-11T13:45:39.609Z,40.80
2018-05-11T13:48:09.640Z,38.80
2018-05-11T13:50:38.511Z,38.20
2018-05-11T13:53:08.144Z,38.80
2018-05-11T13:55:37.847Z,40.00
2018-05-11T13:58:07.404Z,40.60
2018-05-11T14:00:36.182Z,43.00
2018-05-11T14:03:13.360Z,37.40
2018-05-11T14:05:42.828Z,40.80
2018-05-11T14:08:11.488Z,38.40
2018-05-11T14:10:40.293Z,41.60
2018-05-11T14:13:09.885Z,40.80
2018-05-11T14:15:40.156Z,41.00
2018-05-11T14:18:10.035Z,45.40
2018-05-11T14:20:39.621Z,42.00
2018-05-11T14:23:09.125Z,42.40
2018-05-11T14:25:38.862Z,41.80
2018-05-11T14:28:08.565Z,41.80
2018-05-11T14:30:38.770Z,43.40
2018-05-11T14:33:08.114Z,43.40
2018-05-11T14:35:37.342Z,44.00
2018-05-11T14:38:06.724Z,45.20
2018-05-11T14:40:36.433Z,44.40
2018-05-11T14:43:05.111Z,42.00
2018-05-11T14:45:34.583Z,44.00
2018-05-11T14:48:03.498Z,44.40
2018-05-11T14:50:33.127Z,45.20
2018-05-11T14:53:02.010Z,46.20
2018-05-11T14:55:31.169Z,43.40
2018-05-11T14:58:00.168Z,44.20
2018-05-11T15:00:29.425Z,44.40
2018-05-11T15:02:59.211Z,43.60
2018-05-11T15:05:28.743Z,43.40
2018-05-11T15:07:57.733Z,45.60
2018-05-11T15:10:26.833Z,45.20
2018-05-11T15:12:56.457Z,43.60
2018-05-11T15:15:25.001Z,46.80
2018-05-11T15:17:55.723Z,43.60
2018-05-11T15:20:24.440Z,45.40
2018-05-11T15:22:53.586Z,46.00
2018-05-11T15:25:22.536Z,44.40
2018-05-11T15:27:51.850Z,44.80
2018-05-11T15:30:21.191Z,44.80
2018-05-11T15:32:51.230Z,46.20
2018-05-11T15:35:20.817Z,45.00
2018-05-11T15:37:50.519Z,44.20
2018-05-11T15:40:18.995Z,46.00
2018-05-11T15:42:48.984Z,46.40
2018-05-11T15:45:18.859Z,48.00
2018-05-11T15:47:48.157Z,47.80
2018-05-11T15:50:17.674Z,51.20
2018-05-11T15:52:47.389Z,47.80
2018-05-11T15:55:16.209Z,46.40
2018-05-11T15:57:45.666Z,46.40
2018-05-11T16:00:15.201Z,45.20
2018-05-11T16:02:44.620Z,44.60
2018-05-11T16:05:15.791Z,44.80
2018-05-11T16:07:45.571Z,45.20
2018-05-11T16:10:15.474Z,48.80
2018-05-11T16:12:44.723Z,45.20
2018-05-11T16:15:14.628Z,46.60
2018-05-11T16:17:43.592Z,48.00
2018-05-11T16:20:14.678Z,47.20
2018-05-11T16:22:43.793Z,47.80
2018-05-11T16:25:12.927Z,49.40
2018-05-11T16:27:42.786Z,48.20
2018-05-11T16:30:11.638Z,50.00
2018-05-11T16:32:40.940Z,50.40
2018-05-11T16:35:10.954Z,50.00
2018-05-11T16:37:40.318Z,51.20
2018-05-11T16:40:09.797Z,50.60
2018-05-11T16:42:39.016Z,50.80
2018-05-11T16:45:08.685Z,50.80
2018-05-11T16:47:38.111Z,52.00
2018-05-11T16:50:07.641Z,53.00
2018-05-11T16:52:37.378Z,49.80
2018-05-11T16:55:07.074Z,51.40
2018-05-11T16:57:36.703Z,51.00
2018-05-11T17:00:06.974Z,51.60
2018-05-11T17:02:36.374Z,52.40
2018-05-11T17:05:05.757Z,53.00
2018-05-11T17:07:34.414Z,54.00
2018-05-11T17:10:04.070Z,53.20
2018-05-11T17:12:33.234Z,53.20
2018-05-11T17:15:02.426Z,51.80
2018-05-11T17:17:32.168Z,52.80
2018-05-11T17:20:01.844Z,55.00
2018-05-11T17:22:31.853Z,53.20
2018-05-11T17:25:00.533Z,53.80
2018-05-11T17:27:29.289Z,51.80
2018-05-11T17:29:58.448Z,52.60
2018-05-11T17:32:28.097Z,51.40
2018-05-11T17:34:56.809Z,51.40
2018-05-11T17:37:25.818Z,55.00
2018-05-11T17:39:54.921Z,58.20
2018-05-11T17:42:24.394Z,56.80
2018-05-11T17:44:54.131Z,59.60
2018-05-11T17:47:23.973Z,54.20
2018-05-11T17:49:53.547Z,57.80
2018-05-11T17:52:22.846Z,55.60
2018-05-11T17:54:52.212Z,57.60
2018-05-11T17:57:22.298Z,57.80
2018-05-11T17:59:51.517Z,58.00
2018-05-11T18:02:20.839Z,57.00
2018-05-11T18:04:49.965Z,59.80
2018-05-11T18:07:19.445Z,58.80
2018-05-11T18:09:48.531Z,57.00
2018-05-11T18:12:18.088Z,58.20
2018-05-11T18:14:47.489Z,53.20
2018-05-11T18:17:17.160Z,57.20
2018-05-11T18:19:46.319Z,58.20
2018-05-11T18:22:16.020Z,58.60
2018-05-11T18:24:45.928Z,56.00
2018-05-11T18:27:15.537Z,57.00
2018-05-11T18:29:45.328Z,56.80
2018-05-11T18:32:14.538Z,60.20
2018-05-11T18:34:43.877Z,54.20
2018-05-11T18:37:13.275Z,56.20
2018-05-11T18:39:42.687Z,54.60
2018-05-11T18:42:12.333Z,56.20
2018-05-11T18:44:42.099Z,55.40
2018-05-11T18:47:11.979Z,56.00
2018-05-11T18:49:41.526Z,55.80
2018-05-11T18:52:10.888Z,55.80
2018-05-11T18:54:39.907Z,56.60
2018-05-11T18:57:09.417Z,54.40
2018-05-11T18:59:38.903Z,54.00
2018-05-11T19:02:08.487Z,53.20
2018-05-11T19:04:38.289Z,53.40
2018-05-11T19:07:07.654Z,54.20
2018-05-11T19:09:37.017Z,55.00
2018-05-11T19:12:06.564Z,57.40
2018-05-11T19:14:36.402Z,56.20
2018-05-11T19:17:05.354Z,54.60
2018-05-11T19:19:35.215Z,55.00
2018-05-11T19:22:04.836Z,53.00
2018-05-11T19:24:34.254Z,52.00
2018-05-11T19:27:03.586Z,52.20
2018-05-11T19:29:32.087Z,52.40
2018-05-11T19:32:01.608Z,50.60
2018-05-11T19:37:24.962Z,50.80
2018-05-11T19:39:54.370Z,53.40
2018-05-11T19:42:24.340Z,50.60
2018-05-11T19:44:53.687Z,51.00
2018-05-11T19:47:23.159Z,50.80
2018-05-11T19:49:52.831Z,51.00
2018-05-11T19:52:22.026Z,53.60
2018-05-11T19:54:51.548Z,52.20
2018-05-11T19:57:21.219Z,51.80
2018-05-11T19:59:51.123Z,53.20
2018-05-11T20:02:19.893Z,49.40
2018-05-11T20:04:50.003Z,52.40
2018-05-11T20:07:19.918Z,56.00
2018-05-11T20:09:48.876Z,52.20
2018-05-11T20:12:17.923Z,52.20
2018-05-11T20:14:48.820Z,52.40
2018-05-11T20:17:18.500Z,52.60
2018-05-11T20:19:46.981Z,52.20
2018-05-11T20:22:16.055Z,52.00
2018-05-11T20:24:44.960Z,53.60
2018-05-11T20:27:14.389Z,52.20
2018-05-11T20:29:44.288Z,56.00
2018-05-11T20:32:13.695Z,53.40
2018-05-11T20:34:43.759Z,51.80
2018-05-11T20:37:13.732Z,53.20
2018-05-11T20:39:43.727Z,54.20
2018-05-11T20:42:13.490Z,51.20
2018-05-11T20:44:42.341Z,51.40
2018-05-11T20:47:11.846Z,53.00
2018-05-11T20:49:41.464Z,55.00
2018-05-11T20:52:11.091Z,52.80
2018-05-11T20:54:40.383Z,51.00
2018-05-11T20:57:09.426Z,52.20
2018-05-11T20:59:39.017Z,53.40
2018-05-11T21:02:08.679Z,55.20
2018-05-11T21:04:38.835Z,56.40
2018-05-11T21:07:08.352Z,56.00
2018-05-11T21:09:37.654Z,53.20
2018-05-11T21:12:06.956Z,52.00
2018-05-11T21:14:35.596Z,53.40
2018-05-11T21:17:05.123Z,54.60
2018-05-11T21:19:33.734Z,53.00
2018-05-11T21:22:03.383Z,53.40
2018-05-11T21:24:32.362Z,52.00
2018-05-11T21:27:01.426Z,53.80
2018-05-11T21:29:30.945Z,51.80
2018-05-11T21:31:59.786Z,52.20
2018-05-11T21:34:29.262Z,55.60
2018-05-11T21:36:58.425Z,52.20
2018-05-11T21:39:27.759Z,53.40
2018-05-11T21:41:57.332Z,49.60
2018-05-11T21:44:26.561Z,51.20
2018-05-11T21:46:56.259Z,51.60
2018-05-11T21:49:25.489Z,51.40
2018-05-11T21:51:55.220Z,53.00
2018-05-11T21:54:29.391Z,51.20
2018-05-11T21:56:59.397Z,53.20
2018-05-11T21:59:28.524Z,55.20
2018-05-11T22:01:57.879Z,52.40
2018-05-11T22:04:26.824Z,51.40
2018-05-11T22:06:56.588Z,55.00
2018-05-11T22:09:25.994Z,56.20
2018-05-11T22:11:54.984Z,54.00
2018-05-11T22:14:23.977Z,53.40
2018-05-11T22:16:53.320Z,53.40
2018-05-11T22:19:23.117Z,55.20
2018-05-11T22:21:52.517Z,58.40
2018-05-11T22:24:21.818Z,56.40
2018-05-11T22:26:50.428Z,59.40
2018-05-11T22:29:20.064Z,63.00
2018-05-11T22:31:49.337Z,61.60
2018-05-11T22:34:18.244Z,57.80
2018-05-11T22:36:47.763Z,59.40
2018-05-11T22:39:17.168Z,56.20
2018-05-11T22:41:46.743Z,58.20
2018-05-11T22:44:15.793Z,57.20
2018-05-11T22:46:44.799Z,57.40
2018-05-11T22:49:13.630Z,58.40
2018-05-11T22:51:42.911Z,59.80
2018-05-11T22:54:12.141Z,62.00
2018-05-11T22:56:42.083Z,62.20
2018-05-11T22:59:10.988Z,62.80
2018-05-11T23:01:40.736Z,59.60
2018-05-11T23:04:10.342Z,61.60
2018-05-11T23:06:40.111Z,62.20
2018-05-11T23:09:09.582Z,57.20
2018-05-11T23:11:38.411Z,61.40
2018-05-11T23:14:07.232Z,60.80
2018-05-11T23:16:36.971Z,67.00
2018-05-11T23:19:06.541Z,60.60
2018-05-11T23:21:37.552Z,60.60
2018-05-11T23:24:07.353Z,64.40
2018-05-11T23:26:36.153Z,60.20
2018-05-11T23:29:05.306Z,62.60
2018-05-11T23:31:34.211Z,58.60
2018-05-11T23:34:04.522Z,57.60
2018-05-11T23:36:33.625Z,56.40
2018-05-11T23:39:02.752Z,53.80
2018-05-11T23:41:32.611Z,54.40
2018-05-11T23:44:02.519Z,59.80
2018-05-11T23:46:32.036Z,56.60
2018-05-11T23:49:01.058Z,58.00
2018-05-11T23:51:30.630Z,56.40
2018-05-11T23:54:00.804Z,56.20
2018-05-11T23:56:30.765Z,60.40
2018-05-11T23:58:59.888Z,59.20
